Time;durP1;ratioP1;P1;durP2;ratioP2;P2;SDS_P1;SDS_P2;PMS_P1;PMS_P2;Temp;Humidity;BMP_temperature;BMP_pressure;BME280_temperature;BME280_humidity;BME280_pressure;Samples;Min_cycle;Max_cycle;Signal;HPM_P1;HPM_P2
2021/04/22 00:01:08;;;;;;;;;;;;;;;-144.99;64.54;52244.28;5003000;28;19994;-74
2021/04/22 00:03:39;;;;;;;;;;;;;;;-144.99;64.91;52187.19;4996000;28;19955;-75
2021/04/22 00:06:11;;;;;;;;;;;;;;;-144.99;64.78;52211.66;4997850;28;20073;-75
2021/04/22 00:08:42;;;;;;;;;;;;;;;-144.99;65.33;52223.88;5002125;28;19997;-79
2021/04/22 00:11:14;;;;;;;;;;;;;;;-144.99;65.28;52225.94;5005173;28;19978;-79
2021/04/22 00:13:46;;;;;;;;;;;;;;;-144.99;65.41;52244.28;5003478;28;19961;-78
2021/04/22 00:16:17;;;;;;;;;;;;;;;-144.99;65.42;52244.28;4995947;28;20306;-79
2021/04/22 00:18:49;;;;;;;;;;;;;;;-144.99;65.36;52195.34;5010396;28;19981;-79
2021/04/22 00:21:20;;;;;;;;;;;;;;;-144.99;65.59;52240.19;4998917;28;19969;-80
2021/04/22 00:23:52;;;;;;;;;;;;;;;-144.99;65.46;52207.59;5001392;28;19978;-78
2021/04/22 00:26:23;;;;;;;;;;;;;;;-144.99;65.41;52201.47;5011696;28;19978;-79
2021/04/22 00:28:58;;;;;;;;;;;;;;;-144.99;65.06;52217.78;5004989;28;20382;-79
2021/04/22 00:31:29;;;;;;;;;;;;;;;-144.99;64.76;52223.88;5010632;28;19977;-80
2021/04/22 00:34:01;;;;;;;;;;;;;;;-144.99;64.54;52236.13;5002226;28;19978;-79
2021/04/22 00:36:32;;;;;;;;;;;;;;;-144.99;64.47;52199.44;4999490;28;20000;-78
2021/04/22 00:39:04;;;;;;;;;;;;;;;-144.99;64.08;52199.44;5002215;28;20089;-79
2021/04/22 00:41:35;;;;;;;;;;;;;;;-144.99;63.91;52227.97;5000305;28;19986;-79
2021/04/22 00:44:06;;;;;;;;;;;;;;;-144.99;63.72;52179.06;5003807;28;19989;-79
2021/04/22 00:46:39;;;;;;;;;;;;;;;-144.99;63.39;52207.59;5000513;28;19974;-79
2021/04/22 00:49:10;;;;;;;;;;;;;;;-144.99;63.52;52227.97;5021529;22;20021;-70
2021/04/22 00:51:42;;;;;;;;;;;;;;;-144.99;64.12;52217.78;4988290;28;19974;-72
2021/04/22 00:54:13;;;;;;;;;;;;;;;-144.99;62.75;52227.97;4987693;28;20531;-72
2021/04/22 00:56:45;;;;;;;;;;;;;;;-144.99;62.94;52203.50;4991291;28;19978;-72
2021/04/22 00:59:17;;;;;;;;;;;;;;;-144.99;61.89;52197.41;4986416;28;19999;-72
2021/04/22 01:01:49;;;;;;;;;;;;;;;-144.99;61.52;52238.16;4991049;28;20522;-73
2021/04/22 01:04:18;;;;;;;;;;;;;;;-144.99;62.43;52227.97;4989069;28;19962;-72
2021/04/22 01:06:49;;;;;;;;;;;;;;;-144.99;61.50;52187.19;4986053;28;19986;-72
2021/04/22 01:09:21;;;;;;;;;;;;;;;-144.99;61.48;52199.44;4993073;28;19983;-72
2021/04/22 01:11:54;;;;;;;;;;;;;;;-144.99;61.46;52211.66;4990845;28;20081;-74
2021/04/22 01:14:27;;;;;;;;;;;;;;;-144.99;61.67;52248.34;4994535;28;20103;-72
2021/04/22 01:16:55;;;;;;;;;;;;;;;-144.99;61.68;52223.88;4984383;28;20396;-71
2021/04/22 01:19:27;;;;;;;;;;;;;;;-144.99;61.51;52238.16;4991379;28;19998;-72
2021/04/22 01:21:59;;;;;;;;;;;;;;;-144.99;61.55;52240.19;4989745;28;19979;-73
2021/04/22 01:24:30;;;;;;;;;;;;;;;-144.99;61.52;52232.03;4987097;28;19983;-73
2021/04/22 01:27:02;;;;;;;;;;;;;;;-144.99;61.68;52227.97;4981754;28;20044;-73
2021/04/22 01:29:33;;;;;;;;;;;;;;;-144.99;61.49;52191.28;4989500;28;20468;-72
2021/04/22 01:32:05;;;;;;;;;;;;;;;-144.99;61.80;52187.19;4987520;28;19982;-72
2021/04/22 01:34:36;;;;;;;;;;;;;;;-144.99;61.97;52211.66;4991392;28;20001;-74
2021/04/22 01:37:10;;;;;;;;;;;;;;;-144.99;62.29;52203.50;4991195;28;20008;-74
2021/04/22 01:39:39;;;;;;;;;;;;;;;-144.99;62.53;52252.44;4985608;28;20065;-74
2021/04/22 01:42:10;;;;;;;;;;;;;;;-144.99;62.59;52230.00;4981330;28;20455;-74
2021/04/22 01:44:42;;;;;;;;;;;;;;;-144.99;62.49;52203.50;4991091;28;19975;-74
2021/04/22 01:47:13;;;;;;;;;;;;;;;-144.99;62.63;52207.59;4999136;28;20564;-73
2021/04/22 01:49:42;;;;;;;;;;;;;;;-144.99;62.49;52211.66;4997713;28;19994;-72
2021/04/22 01:52:14;;;;;;;;;;;;;;;-144.99;62.08;52195.34;4987941;28;20471;-73
2021/04/22 01:54:45;;;;;;;;;;;;;;;-144.99;61.65;52215.75;4985373;28;20595;-73
2021/04/22 01:57:17;;;;;;;;;;;;;;;-144.99;61.47;52240.19;4994483;28;19983;-76
2021/04/22 01:59:45;;;;;;;;;;;;;;;-144.99;61.48;52199.44;4984447;28;20480;-72
2021/04/22 02:02:16;;;;;;;;;;;;;;;-144.99;61.65;52246.31;4994378;28;20036;-73
2021/04/22 02:04:49;;;;;;;;;;;;;;;-144.99;60.79;52191.28;4994466;28;19982;-72
2021/04/22 02:07:21;;;;;;;;;;;;;;;-144.99;60.46;52230.00;4991039;28;20036;-72
2021/04/22 02:09:52;;;;;;;;;;;;;;;-144.99;60.02;52227.97;4990376;28;20002;-72
2021/04/22 02:12:24;;;;;;;;;;;;;;;-144.99;59.02;52227.97;4994609;28;20370;-71
2021/04/22 02:14:55;;;;;;;;;;;;;;;-144.99;59.29;52223.88;4996454;28;20405;-72
2021/04/22 02:17:27;;;;;;;;;;;;;;;-144.99;58.75;52223.88;4984525;28;20084;-73
2021/04/22 02:19:58;;;;;;;;;;;;;;;-144.99;58.99;52203.50;4993478;28;20004;-73
2021/04/22 02:22:31;;;;;;;;;;;;;;;-144.99;59.13;52223.88;4991005;28;20436;-72
2021/04/22 02:25:02;;;;;;;;;;;;;;;-144.99;59.60;52170.91;4994030;28;19979;-73
2021/04/22 02:27:34;;;;;;;;;;;;;;;-144.99;59.98;52215.75;4995434;28;19974;-74
2021/04/22 02:30:07;;;;;;;;;;;;;;;-144.99;60.16;52193.31;4996574;28;19994;-73
2021/04/22 02:32:39;;;;;;;;;;;;;;;-144.99;60.37;52207.59;4988769;28;19974;-74
2021/04/22 02:35:11;;;;;;;;;;;;;;;-144.99;60.71;52236.13;4986080;28;19985;-73
2021/04/22 02:37:38;;;;;;;;;;;;;;;-144.99;60.53;52203.50;4992381;28;19982;-74
2021/04/22 02:40:10;;;;;;;;;;;;;;;-144.99;60.71;52246.31;4994054;28;20002;-74
2021/04/22 02:42:42;;;;;;;;;;;;;;;-144.99;60.80;52232.03;4986253;28;19978;-73
2021/04/22 02:45:14;;;;;;;;;;;;;;;-144.99;60.79;52227.97;4995846;28;20048;-74
2021/04/22 02:47:43;;;;;;;;;;;;;;;-144.99;61.14;52215.75;4989688;28;19982;-73
2021/04/22 02:50:16;;;;;;;;;;;;;;;-144.99;61.48;52179.06;4999582;28;20005;-74
2021/04/22 02:52:48;;;;;;;;;;;;;;;-144.99;60.91;52207.59;4992047;28;19986;-73
2021/04/22 02:55:20;;;;;;;;;;;;;;;-144.99;60.87;52223.88;4988607;28;19982;-76
2021/04/22 02:57:51;;;;;;;;;;;;;;;-144.99;60.43;52223.88;4996325;28;19993;-72
2021/04/22 03:00:24;;;;;;;;;;;;;;;-144.99;60.37;52193.31;4985013;28;20084;-73
2021/04/22 03:02:55;;;;;;;;;;;;;;;-144.99;59.95;52215.75;4991470;28;19993;-73
2021/04/22 03:05:27;;;;;;;;;;;;;;;-144.99;59.80;52221.84;4991763;28;20028;-74
2021/04/22 03:07:59;;;;;;;;;;;;;;;-144.99;59.80;52240.19;4995076;28;19978;-72
2021/04/22 03:10:31;;;;;;;;;;;;;;;-144.99;60.19;52215.75;4983760;28;20002;-72
2021/04/22 03:13:02;;;;;;;;;;;;;;;-144.99;60.14;52246.31;4992924;28;19982;-72
2021/04/22 03:15:34;;;;;;;;;;;;;;;-144.99;60.52;52219.81;4991485;28;19981;-72
2021/04/22 03:18:06;;;;;;;;;;;;;;;-144.99;60.54;52195.34;4992030;28;19978;-73
2021/04/22 03:20:37;;;;;;;;;;;;;;;-144.99;60.79;52219.81;4997981;28;20039;-71
2021/04/22 03:23:10;;;;;;;;;;;;;;;-144.99;61.29;52166.81;4988224;28;19979;-74
2021/04/22 03:25:41;;;;;;;;;;;;;;;-144.99;61.50;52215.75;4991326;28;19978;-70
2021/04/22 03:28:12;;;;;;;;;;;;;;;-144.99;61.75;52187.19;4990470;28;19986;-71
2021/04/22 03:30:44;;;;;;;;;;;;;;;-144.99;61.97;52187.19;4991935;28;19974;-71
2021/04/22 03:33:15;;;;;;;;;;;;;;;-144.99;62.33;52213.69;4992212;28;19978;-72
2021/04/22 03:35:47;;;;;;;;;;;;;;;-144.99;62.97;52244.28;4991970;28;19982;-70
2021/04/22 03:38:19;;;;;;;;;;;;;;;-144.99;63.57;52232.03;4992266;28;19994;-74
2021/04/22 03:40:51;;;;;;;;;;;;;;;-144.99;63.54;52211.66;4996125;28;20464;-74
2021/04/22 03:43:22;;;;;;;;;;;;;;;-144.99;63.26;52166.81;4993800;28;19992;-74
2021/04/22 03:45:54;;;;;;;;;;;;;;;-144.99;63.35;52217.78;4982517;28;19979;-73
2021/04/22 03:48:25;;;;;;;;;;;;;;;-144.99;63.18;52248.34;4989239;28;20241;-74
2021/04/22 03:50:54;;;;;;;;;;;;;;;-144.99;63.06;52187.19;4985782;28;19982;-72
2021/04/22 03:53:26;;;;;;;;;;;;;;;-144.99;62.53;52223.88;4992793;28;19978;-73
2021/04/22 03:56:03;;;;;;;;;;;;;;;-144.99;62.72;52244.28;4984811;28;20026;-73
2021/04/22 03:58:39;;;;;;;;;;;;;;;-144.99;62.74;52187.19;4991487;28;19996;-73
2021/04/22 04:01:10;;;;;;;;;;;;;;;-144.99;63.17;52207.59;4991275;28;20100;-73
2021/04/22 04:03:42;;;;;;;;;;;;;;;-144.99;64.21;52217.78;4994697;28;19975;-73
2021/04/22 04:06:13;;;;;;;;;;;;;;;-144.99;63.87;52203.50;4994909;28;19974;-76
2021/04/22 04:08:46;;;;;;;;;;;;;;;-144.99;64.50;52223.88;4985296;28;20279;-73
2021/04/22 04:11:17;;;;;;;;;;;;;;;-144.99;64.43;52221.84;4994927;28;20436;-73
2021/04/22 04:13:49;;;;;;;;;;;;;;;-144.99;65.11;52227.97;4995235;28;19978;-73
2021/04/22 04:16:25;;;;;;;;;;;;;;;-144.99;66.02;52234.09;4987518;28;20024;-71
2021/04/22 04:18:57;;;;;;;;;;;;;;;-144.99;68.27;52215.75;4990720;28;20490;-71
2021/04/22 04:21:28;;;;;;;;;;;;;;;-144.99;68.57;52199.44;4992253;28;19994;-71
2021/04/22 04:24:00;;;;;;;;;;;;;;;-144.99;69.35;52230.00;4991707;28;20000;-70
2021/04/22 04:26:32;;;;;;;;;;;;;;;-144.99;70.05;52232.03;4976211;28;20024;-69
2021/04/22 04:29:03;;;;;;;;;;;;;;;-144.99;68.93;52219.81;4987767;28;19994;-74
2021/04/22 04:31:35;;;;;;;;;;;;;;;-144.99;69.02;52199.44;4991766;28;19982;-75
2021/04/22 04:34:12;;;;;;;;;;;;;;;-144.99;68.64;52225.94;4991943;28;19990;-74
2021/04/22 04:36:46;;;;;;;;;;;;;;;-144.99;68.39;52211.66;4994281;28;19978;-76
2021/04/22 04:39:18;;;;;;;;;;;;;;;-144.99;68.66;52215.75;4997900;28;19994;-75
2021/04/22 04:41:47;;;;;;;;;;;;;;;-144.99;68.24;52223.88;4991869;28;20054;-75
2021/04/22 04:44:16;;;;;;;;;;;;;;;-144.99;67.56;52203.50;4992618;28;20455;-77
2021/04/22 04:46:47;;;;;;;;;;;;;;;-144.99;66.35;52195.34;4991232;28;20069;-76
2021/04/22 04:49:19;;;;;;;;;;;;;;;-144.99;65.06;52201.47;4994124;28;20005;-75
2021/04/22 04:51:48;;;;;;;;;;;;;;;-144.99;65.09;52199.44;4994254;28;20152;-74
2021/04/22 04:54:20;;;;;;;;;;;;;;;-144.99;64.88;52232.03;4980271;28;19978;-75
2021/04/22 04:56:51;;;;;;;;;;;;;;;-144.99;64.86;52227.97;4984853;28;19978;-75
2021/04/22 04:59:23;;;;;;;;;;;;;;;-144.99;64.64;52203.50;4990907;28;19995;-75
2021/04/22 05:01:54;;;;;;;;;;;;;;;-144.99;65.85;52232.03;4991679;28;20386;-73
2021/04/22 05:04:26;;;;;;;;;;;;;;;-144.99;66.59;52215.75;4991787;28;20482;-72
2021/04/22 05:06:57;;;;;;;;;;;;;;;-144.99;64.57;52181.09;4983783;28;19978;-74
2021/04/22 05:09:30;;;;;;;;;;;;;;;-144.99;64.46;52201.47;4993477;28;20001;-74
2021/04/22 05:12:01;;;;;;;;;;;;;;;-144.99;64.33;52211.66;4986726;28;20284;-74
2021/04/22 05:14:33;;;;;;;;;;;;;;;-144.99;64.17;52209.63;4994748;28;19975;-74
2021/04/22 05:17:13;;;;;;;;;;;;;;;-144.99;63.71;52195.34;4256234;28;10000739;-74
2021/04/22 05:19:45;;;;;;;;;;;;;;;-144.99;64.05;52236.13;4982610;28;19997;-75
2021/04/22 05:22:16;;;;;;;;;;;;;;;-144.99;64.37;52174.97;4987172;28;20558;-74
2021/04/22 05:24:48;;;;;;;;;;;;;;;-144.99;64.87;52203.50;4987277;28;19978;-72
2021/04/22 05:27:20;;;;;;;;;;;;;;;-144.99;64.95;52170.91;4982973;28;19984;-75
2021/04/22 05:29:49;;;;;;;;;;;;;;;-144.99;65.07;52199.44;4992139;28;20379;-74
2021/04/22 05:32:20;;;;;;;;;;;;;;;-144.99;64.85;52240.19;4988054;28;19978;-74
2021/04/22 05:34:52;;;;;;;;;;;;;;;-144.99;64.21;52219.81;4992709;28;19982;-72
2021/04/22 05:37:23;;;;;;;;;;;;;;;-144.99;64.33;52179.06;4989019;28;19989;-74
2021/04/22 05:39:55;;;;;;;;;;;;;;;-144.99;63.96;52170.91;4988129;28;20040;-74
2021/04/22 05:42:27;;;;;;;;;;;;;;;-144.99;64.47;52179.06;4994739;28;19955;-77
2021/04/22 05:44:58;;;;;;;;;;;;;;;-144.99;64.48;52244.28;4992682;28;19981;-76
2021/04/22 05:47:30;;;;;;;;;;;;;;;-144.99;64.75;52179.06;4985075;28;19986;-75
2021/04/22 05:50:01;;;;;;;;;;;;;;;-144.99;64.96;52211.66;4995834;28;20069;-74
2021/04/22 05:52:33;;;;;;;;;;;;;;;-144.99;64.73;52201.47;4985371;28;19978;-73
2021/04/22 05:55:05;;;;;;;;;;;;;;;-144.99;64.45;52195.34;4990811;28;19982;-74
2021/04/22 05:57:37;;;;;;;;;;;;;;;-144.99;64.08;52203.50;4986558;28;19982;-74
2021/04/22 06:00:10;;;;;;;;;;;;;;;-144.99;63.24;52191.28;4980392;28;20533;-73
2021/04/22 06:02:41;;;;;;;;;;;;;;;-144.99;63.28;52223.88;4982659;28;19981;-76
2021/04/22 06:05:12;;;;;;;;;;;;;;;-144.99;62.72;52187.19;4979985;28;20050;-77
2021/04/22 06:07:44;;;;;;;;;;;;;;;-144.99;62.38;52199.44;4989712;28;19949;-74
2021/04/22 06:10:17;;;;;;;;;;;;;;;-144.99;62.49;52213.69;5007924;28;20069;-75
2021/04/22 06:12:49;;;;;;;;;;;;;;;-144.99;61.93;52223.88;5003955;28;20025;-77
2021/04/22 06:15:21;;;;;;;;;;;;;;;-144.99;62.31;52236.13;5004452;28;19978;-74
2021/04/22 06:17:52;;;;;;;;;;;;;;;-144.99;62.30;52199.44;5000250;28;19971;-76
2021/04/22 06:20:25;;;;;;;;;;;;;;;-144.99;61.88;52142.38;5001058;28;19989;-73
2021/04/22 06:22:57;;;;;;;;;;;;;;;-144.99;61.72;52174.97;4995052;28;20006;-70
2021/04/22 06:25:30;;;;;;;;;;;;;;;-144.99;62.18;52170.91;4993033;28;19993;-72
2021/04/22 06:28:02;;;;;;;;;;;;;;;-144.99;63.14;52138.28;4989507;28;20073;-72
2021/04/22 06:30:34;;;;;;;;;;;;;;;-144.99;61.60;52201.47;4985015;28;19974;-72
2021/04/22 06:33:05;;;;;;;;;;;;;;;-144.99;61.78;52187.19;4985442;28;19979;-73
2021/04/22 06:35:37;;;;;;;;;;;;;;;-144.99;61.38;52187.19;4986902;28;19982;-75
2021/04/22 06:38:08;;;;;;;;;;;;;;;-144.99;61.48;52223.88;4984608;28;20005;-76
2021/04/22 06:40:40;;;;;;;;;;;;;;;-144.99;61.46;52166.81;4992717;28;19990;-76
2021/04/22 06:43:13;;;;;;;;;;;;;;;-144.99;60.95;52211.66;4996818;28;19985;-76
2021/04/22 06:45:46;;;;;;;;;;;;;;;-144.99;60.89;52203.50;4992326;28;19998;-75
2021/04/22 06:48:18;;;;;;;;;;;;;;;-144.99;61.31;52195.34;4992092;28;20006;-73
2021/04/22 06:50:49;;;;;;;;;;;;;;;-144.99;60.83;52191.28;4992464;22;20092;-76
2021/04/22 06:53:21;;;;;;;;;;;;;;;-144.99;60.87;52207.59;4963424;28;19988;-76
2021/04/22 06:55:53;;;;;;;;;;;;;;;-144.99;60.24;52191.28;4965555;28;19989;-76
2021/04/22 06:58:22;;;;;;;;;;;;;;;-144.99;60.04;52203.50;4975113;28;19983;-76
2021/04/22 07:00:54;;;;;;;;;;;;;;;-144.99;59.54;52134.22;4966663;28;19998;-76
2021/04/22 07:03:25;;;;;;;;;;;;;;;-144.99;58.92;52183.13;4963222;28;20086;-77
2021/04/22 07:05:57;;;;;;;;;;;;;;;-144.99;57.73;52158.66;4967392;28;20013;-77
2021/04/22 07:08:28;;;;;;;;;;;;;;;-144.99;57.68;52158.66;4968320;28;19978;-79
2021/04/22 07:11:00;;;;;;;;;;;;;;;-144.99;57.86;52187.19;4967619;28;20383;-76
2021/04/22 07:13:32;;;;;;;;;;;;;;;-144.99;58.34;52179.06;4974289;28;19985;-77
2021/04/22 07:16:04;;;;;;;;;;;;;;;-144.99;58.68;52154.59;4974593;28;19989;-79
2021/04/22 07:18:36;;;;;;;;;;;;;;;-144.99;58.83;52183.13;4960651;28;20034;-78
2021/04/22 07:21:07;;;;;;;;;;;;;;;-144.99;58.27;52142.38;4965728;28;20220;-78
2021/04/22 07:23:38;;;;;;;;;;;;;;;-144.99;58.16;52195.34;4969254;28;20010;-77
2021/04/22 07:26:11;;;;;;;;;;;;;;;-144.99;57.66;52166.81;4971068;28;19982;-76
2021/04/22 07:28:42;;;;;;;;;;;;;;;-144.99;56.46;52179.06;4970272;28;20069;-76
2021/04/22 07:31:14;;;;;;;;;;;;;;;-144.99;55.44;52154.59;4968258;28;19982;-74
2021/04/22 07:33:45;;;;;;;;;;;;;;;-144.99;54.59;52191.28;4961869;28;19974;-77
2021/04/22 07:36:17;;;;;;;;;;;;;;;-144.99;54.67;52170.91;4979711;28;19986;-77
2021/04/22 07:38:50;;;;;;;;;;;;;;;-144.99;53.70;52162.75;4966870;28;20013;-76
2021/04/22 07:41:22;;;;;;;;;;;;;;;-144.99;53.81;52166.81;4964770;28;20461;-77
2021/04/22 07:43:54;;;;;;;;;;;;;;;-144.99;53.79;52154.59;4961846;28;19982;-77
2021/04/22 07:46:25;;;;;;;;;;;;;;;-144.99;54.41;52191.28;4959881;28;20090;-77
2021/04/22 07:48:57;;;;;;;;;;;;;;;-144.99;54.94;52207.59;4969704;28;20009;-77
2021/04/22 07:51:28;;;;;;;;;;;;;;;-144.99;54.84;52166.81;4967222;28;19978;-77
2021/04/22 07:54:00;;;;;;;;;;;;;;;-144.99;55.19;52207.59;4970499;28;19978;-78
2021/04/22 07:56:32;;;;;;;;;;;;;;;-144.99;55.13;52191.28;4969443;28;20049;-76
2021/04/22 07:59:04;;;;;;;;;;;;;;;-144.99;55.24;52187.19;4967245;28;19983;-77
2021/04/22 08:01:35;;;;;;;;;;;;;;;-144.99;55.35;52183.13;4970144;28;19997;-77
2021/04/22 08:04:07;;;;;;;;;;;;;;;-144.99;55.94;52166.81;4965992;28;20053;-75
2021/04/22 08:06:38;;;;;;;;;;;;;;;-144.99;56.02;52211.66;4968295;28;20451;-76
2021/04/22 08:09:10;;;;;;;;;;;;;;;-144.99;55.93;52179.06;4964274;28;19999;-75
2021/04/22 08:11:43;;;;;;;;;;;;;;;-144.99;54.86;52166.81;4976780;28;20034;-74
2021/04/22 08:14:14;;;;;;;;;;;;;;;-144.99;53.96;52142.38;4977257;28;20041;-77
2021/04/22 08:16:46;;;;;;;;;;;;;;;-144.99;52.52;52177.00;4969665;28;19987;-75
2021/04/22 08:19:17;;;;;;;;;;;;;;;-144.99;52.55;52166.81;4978700;28;20014;-78
2021/04/22 08:21:49;;;;;;;;;;;;;;;-144.99;52.20;52183.13;4962464;28;20493;-76
2021/04/22 08:24:20;;;;;;;;;;;;;;;-144.99;52.29;52146.44;4977957;28;20033;-79
2021/04/22 08:26:53;;;;;;;;;;;;;;;-144.99;51.72;52191.28;4977894;28;19995;-78
2021/04/22 08:29:24;;;;;;;;;;;;;;;-144.99;50.90;52191.28;4969866;28;20252;-76
2021/04/22 08:31:53;;;;;;;;;;;;;;;-144.99;50.95;52183.13;4976216;28;20040;-75
2021/04/22 08:34:26;;;;;;;;;;;;;;;-144.99;50.09;52179.06;4966461;28;20001;-77
2021/04/22 08:36:58;;;;;;;;;;;;;;;-144.99;50.25;52162.75;4976717;28;19982;-75
2021/04/22 08:39:36;;;;;;;;;;;;;;;-144.99;50.62;52172.94;4968661;28;21104;-77
2021/04/22 08:42:09;;;;;;;;;;;;;;;-144.99;51.33;52146.44;4973834;28;20385;-77
2021/04/22 08:44:40;;;;;;;;;;;;;;;-144.99;51.77;52150.53;4964726;28;20009;-77
2021/04/22 08:47:12;;;;;;;;;;;;;;;-144.99;51.02;52183.13;4981911;28;19979;-77
2021/04/22 08:49:43;;;;;;;;;;;;;;;-144.99;49.45;52170.91;4973247;28;20021;-76
2021/04/22 08:52:14;;;;;;;;;;;;;;;-144.99;49.49;52179.06;4965434;28;19986;-77
2021/04/22 08:54:46;;;;;;;;;;;;;;;-144.99;49.87;52130.13;4957681;28;20018;-76
2021/04/22 08:57:18;;;;;;;;;;;;;;;-144.99;50.60;52124.03;4970313;28;19989;-77
2021/04/22 08:59:52;;;;;;;;;;;;;;;-144.99;50.76;52170.91;4970740;28;20001;-76
2021/04/22 09:02:24;;;;;;;;;;;;;;;-144.99;50.40;52152.56;4967521;28;20001;-75
2021/04/22 09:04:55;;;;;;;;;;;;;;;-144.99;50.43;52168.84;4970341;28;20005;-77
2021/04/22 09:07:27;;;;;;;;;;;;;;;-144.99;50.56;52142.38;4970664;28;19987;-77
2021/04/22 09:10:00;;;;;;;;;;;;;;;-144.99;50.31;52130.13;4972154;28;19995;-76
2021/04/22 09:12:33;;;;;;;;;;;;;;;-144.99;49.58;52138.28;4970396;28;20409;-76
2021/04/22 09:15:08;;;;;;;;;;;;;;;-144.99;49.23;52162.75;4965522;28;19986;-76
2021/04/22 09:17:40;;;;;;;;;;;;;;;-144.99;48.70;52156.63;4963466;28;20073;-78
2021/04/22 09:20:13;;;;;;;;;;;;;;;-144.99;49.38;52154.59;4976771;28;19997;-72
2021/04/22 09:22:46;;;;;;;;;;;;;;;-144.99;48.93;52113.84;4966334;28;19995;-76
2021/04/22 09:25:24;;;;;;;;;;;;;;;-144.99;49.13;52174.97;4970208;28;19985;-79
2021/04/22 09:27:57;;;;;;;;;;;;;;;-144.99;49.06;52054.72;4973179;28;19978;-78
2021/04/22 09:30:37;;;;;;;;;;;;;;;-144.99;48.63;52109.75;4974799;28;19998;-80
2021/04/22 09:33:09;;;;;;;;;;;;;;;-144.99;48.48;52154.59;4971385;28;19982;-77
2021/04/22 09:35:40;;;;;;;;;;;;;;;-144.99;48.54;52138.28;4972293;28;20080;-79
2021/04/22 09:38:15;;;;;;;;;;;;;;;-144.99;47.90;52126.06;4970723;28;20089;-80
2021/04/22 09:40:47;;;;;;;;;;;;;;;-144.99;47.61;52134.22;4973512;28;20006;-77
2021/04/22 09:43:21;;;;;;;;;;;;;;;-144.99;47.64;52148.47;4973849;28;19990;-78
2021/04/22 09:45:53;;;;;;;;;;;;;;;-144.99;47.13;52156.63;4967358;28;20357;-75
2021/04/22 09:48:28;;;;;;;;;;;;;;;-144.99;47.83;52146.44;4975837;28;19982;-79
2021/04/22 09:51:00;;;;;;;;;;;;;;;-144.99;47.73;52121.97;4975475;28;20002;-78
2021/04/22 09:53:32;;;;;;;;;;;;;;;-144.99;47.15;52172.94;4970803;28;19979;-78
2021/04/22 09:56:10;;;;;;;;;;;;;;;-144.99;46.95;52105.69;4968365;28;19994;-78
2021/04/22 09:58:43;;;;;;;;;;;;;;;-144.99;47.24;52089.38;4967363;28;20032;-78
2021/04/22 10:01:23;;;;;;;;;;;;;;;-144.99;47.06;52170.91;4977182;28;20173;-77
2021/04/22 10:03:55;;;;;;;;;;;;;;;-144.99;47.26;52170.91;4957261;28;20382;-77
2021/04/22 10:06:26;;;;;;;;;;;;;;;-144.99;47.37;52154.59;4969374;28;19978;-78
2021/04/22 10:08:58;;;;;;;;;;;;;;;-144.99;48.18;52130.13;4972253;28;20062;-78
2021/04/22 10:11:29;;;;;;;;;;;;;;;-144.99;47.93;52158.66;4969248;28;19983;-78
2021/04/22 10:14:01;;;;;;;;;;;;;;;-144.99;47.98;52142.38;4976448;28;20076;-78
2021/04/22 10:16:34;;;;;;;;;;;;;;;-144.99;47.53;52105.69;4975248;28;19990;-79
2021/04/22 10:19:05;;;;;;;;;;;;;;;-144.99;47.04;52109.75;4967046;28;20380;-77
2021/04/22 10:21:43;;;;;;;;;;;;;;;-144.99;46.18;52142.38;4971379;28;20305;-80
2021/04/22 10:24:15;;;;;;;;;;;;;;;-144.99;47.11;52170.91;4969484;28;20340;-76
2021/04/22 10:26:47;;;;;;;;;;;;;;;-144.99;48.92;52150.53;4959402;28;20014;-80
2021/04/22 10:29:20;;;;;;;;;;;;;;;-144.99;49.27;52183.13;4981435;28;20000;-79
2021/04/22 10:31:51;;;;;;;;;;;;;;;-144.99;49.20;52146.44;4976634;28;20030;-78
2021/04/22 10:34:20;;;;;;;;;;;;;;;-144.99;49.18;52199.44;4973537;28;20099;-78
2021/04/22 10:36:52;;;;;;;;;;;;;;;-144.99;47.76;52146.44;4966661;28;19986;-78
2021/04/22 10:39:24;;;;;;;;;;;;;;;-144.99;47.82;52134.22;4981369;28;19990;-78
2021/04/22 10:41:53;;;;;;;;;;;;;;;-144.99;48.76;52174.97;4964077;28;20021;-78
2021/04/22 10:44:31;;;;;;;;;;;;;;;-144.99;48.92;52142.38;4965888;28;19983;-79
2021/04/22 10:47:02;;;;;;;;;;;;;;;-144.99;48.09;52113.84;4971003;28;19989;-79
2021/04/22 10:49:34;;;;;;;;;;;;;;;-144.99;48.16;52150.53;4971676;28;20025;-77
2021/04/22 10:52:06;;;;;;;;;;;;;;;-144.99;48.18;52007.84;4968418;28;20444;-78
2021/04/22 10:54:40;;;;;;;;;;;;;;;-144.99;46.67;51989.50;4964450;28;19986;-80
2021/04/22 10:57:12;;;;;;;;;;;;;;;-144.99;45.78;52105.69;4970811;28;20044;-81
2021/04/22 10:59:44;;;;;;;;;;;;;;;-144.99;46.15;52136.25;4976303;28;20543;-78
2021/04/22 11:02:17;;;;;;;;;;;;;;;-144.99;46.88;52183.13;4974001;28;20001;-77
2021/04/22 11:04:49;;;;;;;;;;;;;;;-144.99;47.28;52146.44;4967696;28;20002;-78
2021/04/22 11:07:21;;;;;;;;;;;;;;;-144.99;47.57;52097.53;4964876;28;19970;-79
2021/04/22 11:09:55;;;;;;;;;;;;;;;-144.99;47.93;52146.44;4969108;28;19998;-79
2021/04/22 11:12:33;;;;;;;;;;;;;;;-144.99;48.55;52158.66;4971764;28;20004;-81
2021/04/22 11:15:05;;;;;;;;;;;;;;;-144.99;47.99;52130.13;4970992;28;19982;-77
2021/04/22 11:17:41;;;;;;;;;;;;;;;-144.99;48.69;52146.44;4966633;28;19989;-79
2021/04/22 11:20:18;;;;;;;;;;;;;;;-144.99;49.37;52156.63;4964296;28;19994;-78
2021/04/22 11:22:50;;;;;;;;;;;;;;;-144.99;50.62;52130.13;4962429;28;20017;-78
2021/04/22 11:25:24;;;;;;;;;;;;;;;-144.99;52.07;52113.84;4970507;28;19990;-79
2021/04/22 11:27:56;;;;;;;;;;;;;;;-144.99;51.47;52060.84;4966240;28;19982;-79
2021/04/22 11:30:35;;;;;;;;;;;;;;;-144.99;50.89;52158.66;4963254;28;20877;-77
2021/04/22 11:33:03;;;;;;;;;;;;;;;-144.99;51.04;52136.25;4957732;28;19979;-79
2021/04/22 11:35:36;;;;;;;;;;;;;;;-144.99;50.54;52113.84;4959099;28;20001;-78
2021/04/22 11:38:12;;;;;;;;;;;;;;;-144.99;50.04;52150.53;4971332;28;20627;-77
2021/04/22 11:40:46;;;;;;;;;;;;;;;-144.99;49.98;52121.97;4970860;28;20084;-79
2021/04/22 11:43:24;;;;;;;;;;;;;;;-144.99;49.93;52105.69;4972749;28;20029;-79
2021/04/22 11:45:55;;;;;;;;;;;;;;;-144.99;50.76;52154.59;4965235;28;20410;-80
2021/04/22 11:48:27;;;;;;;;;;;;;;;-144.99;51.10;52126.06;4971601;28;20025;-77
2021/04/22 11:50:59;;;;;;;;;;;;;;;-144.99;51.47;52166.81;4971482;28;20399;-78
2021/04/22 11:53:35;;;;;;;;;;;;;;;-144.99;52.08;52134.22;4966351;28;19983;-78
2021/04/22 11:56:08;;;;;;;;;;;;;;;-144.99;52.72;52199.44;4962816;28;20089;-78
2021/04/22 11:58:40;;;;;;;;;;;;;;;-144.99;52.80;52172.94;4971107;28;20496;-77
2021/04/22 12:01:13;;;;;;;;;;;;;;;-144.99;53.20;52134.22;4970527;28;20378;-77
2021/04/22 12:03:46;;;;;;;;;;;;;;;-144.99;52.88;52187.19;4970867;28;19982;-77
2021/04/22 12:06:18;;;;;;;;;;;;;;;-144.99;52.35;52174.97;4969469;28;19983;-75
2021/04/22 12:08:50;;;;;;;;;;;;;;;-144.99;52.24;52174.97;4963724;28;19983;-79
2021/04/22 12:11:23;;;;;;;;;;;;;;;-144.99;52.91;52166.81;4956654;28;20013;-78
2021/04/22 12:13:55;;;;;;;;;;;;;;;-144.99;53.30;52203.50;4965841;28;19994;-77
2021/04/22 12:16:27;;;;;;;;;;;;;;;-144.99;53.25;52154.59;4970903;28;20356;-77
2021/04/22 12:18:59;;;;;;;;;;;;;;;-144.99;52.02;52203.50;4966297;28;20452;-77
2021/04/22 12:21:31;;;;;;;;;;;;;;;-144.99;52.26;52158.66;4966896;28;19990;-78
2021/04/22 12:24:06;;;;;;;;;;;;;;;-144.99;51.88;52121.97;4968303;28;20073;-78
2021/04/22 12:26:35;;;;;;;;;;;;;;;-144.99;51.61;52156.63;4970073;28;20004;-79
2021/04/22 12:29:08;;;;;;;;;;;;;;;-144.99;51.35;52183.13;4970361;28;20489;-77
2021/04/22 12:31:42;;;;;;;;;;;;;;;-144.99;51.96;52209.63;4970508;28;20570;-78
2021/04/22 12:34:14;;;;;;;;;;;;;;;-144.99;52.77;52183.13;4970472;28;20077;-79
2021/04/22 12:36:58;;;;;;;;;;;;;;;-144.99;53.24;52197.41;4969573;28;20359;-74
2021/04/22 12:39:31;;;;;;;;;;;;;;;-144.99;53.51;52195.34;4970373;28;20005;-78
2021/04/22 12:42:11;;;;;;;;;;;;;;;-144.99;54.16;52207.59;4961050;28;20006;-74
2021/04/22 12:44:44;;;;;;;;;;;;;;;-144.99;53.71;52199.44;4969171;28;19979;-75
2021/04/22 12:47:16;;;;;;;;;;;;;;;-144.99;53.67;52154.59;4963468;28;20392;-78
2021/04/22 12:49:54;;;;;;;;;;;;;;;-144.99;53.39;52166.81;4988485;22;20002;-76